Time;durP1;ratioP1;P1;durP2;ratioP2;P2;SDS_P1;SDS_P2;PMS_P1;PMS_P2;Temp;Humidity;BMP_temperature;BMP_pressure;BME280_temperature;BME280_humidity;BME280_pressure;Samples;Min_cycle;Max_cycle;Signal;HPM_P1;HPM_P2
2023/11/16 00:00:53;;;;;;;;;8.33;5.00;;;;;;;;5054762;28;45408;-69
2023/11/16 00:03:20;;;;;;;;;8.67;4.67;;;;;;;;5057848;28;45448;-69
2023/11/16 00:05:45;;;;;;;;;10.00;4.67;;;;;;;;5056425;28;45830;-69
2023/11/16 00:08:11;;;;;;;;;12.33;8.67;;;;;;;;5057561;28;45445;-68
2023/11/16 00:10:36;;;;;;;;;15.33;8.00;;;;;;;;5047321;28;45347;-70
2023/11/16 00:13:02;;;;;;;;;6.33;6.00;;;;;;;;5052320;28;45303;-71
2023/11/16 00:15:27;;;;;;;;;5.67;5.67;;;;;;;;5043250;28;46277;-69
2023/11/16 00:17:53;;;;;;;;;8.33;5.00;;;;;;;;5041046;28;45370;-72
2023/11/16 00:20:18;;;;;;;;;10.33;10.33;;;;;;;;5056621;28;45246;-69
2023/11/16 00:22:44;;;;;;;;;9.00;8.00;;;;;;;;5056466;28;45491;-69
2023/11/16 00:25:09;;;;;;;;;11.33;10.33;;;;;;;;5053903;28;46359;-69
2023/11/16 00:27:34;;;;;;;;;12.00;9.67;;;;;;;;5057640;28;45375;-69
2023/11/16 00:30:00;;;;;;;;;13.33;10.33;;;;;;;;5052059;28;45454;-72
2023/11/16 00:32:25;;;;;;;;;13.25;12.50;;;;;;;;5057005;28;45326;-72
2023/11/16 00:34:50;;;;;;;;;14.33;12.67;;;;;;;;5057692;28;45541;-71
2023/11/16 00:37:16;;;;;;;;;14.75;14.75;;;;;;;;5052203;28;45148;-69
2023/11/16 00:39:41;;;;;;;;;20.67;16.67;;;;;;;;5051640;28;45426;-71
2023/11/16 00:42:06;;;;;;;;;12.67;12.67;;;;;;;;5052514;28;45627;-69
2023/11/16 00:44:31;;;;;;;;;23.50;16.50;;;;;;;;5047033;28;45443;-69
2023/11/16 00:46:57;;;;;;;;;18.33;14.00;;;;;;;;5046668;28;45520;-69
2023/11/16 00:49:22;;;;;;;;;15.00;12.67;;;;;;;;5052107;28;45397;-73
2023/11/16 00:51:49;;;;;;;;;17.00;16.50;;;;;;;;5040820;28;45298;-70
2023/11/16 00:54:14;;;;;;;;;18.67;13.00;;;;;;;;5054193;28;47474;-69
2023/11/16 00:56:40;;;;;;;;;17.33;11.00;;;;;;;;5054034;28;45418;-69
2023/11/16 00:59:05;;;;;;;;;14.33;11.00;;;;;;;;5050212;28;45448;-69
2023/11/16 01:01:33;;;;;;;;;16.33;11.00;;;;;;;;5056019;28;45494;-71
2023/11/16 01:04:00;;;;;;;;;15.67;11.67;;;;;;;;5048644;28;47421;-69
2023/11/16 01:06:26;;;;;;;;;11.67;10.00;;;;;;;;5050795;28;45434;-70
2023/11/16 01:08:51;;;;;;;;;19.33;12.33;;;;;;;;5048424;28;45382;-71
2023/11/16 01:11:22;;;;;;;;;15.00;12.67;;;;;;;;5050783;28;45283;-69
2023/11/16 01:13:47;;;;;;;;;11.67;10.33;;;;;;;;5045326;28;47609;-69
2023/11/16 01:16:14;;;;;;;;;19.67;15.00;;;;;;;;5042916;28;45318;-68
2023/11/16 01:18:46;;;;;;;;;17.00;13.33;;;;;;;;5048456;28;45158;-70
2023/11/16 01:21:11;;;;;;;;;4.00;4.00;;;;;;;;5057436;28;45474;-69
2023/11/16 01:23:38;;;;;;;;;15.67;12.00;;;;;;;;5055337;28;45612;-70
2023/11/16 01:26:04;;;;;;;;;12.67;11.67;;;;;;;;5048227;28;45220;-69
2023/11/16 01:28:31;;;;;;;;;11.33;10.33;;;;;;;;5054542;28;45357;-71
2023/11/16 01:31:02;;;;;;;;;11.67;11.00;;;;;;;;5055734;28;45577;-69
2023/11/16 01:33:28;;;;;;;;;10.33;9.33;;;;;;;;5056089;28;46625;-69
2023/11/16 01:35:54;;;;;;;;;9.67;9.67;;;;;;;;5056295;28;45572;-70
2023/11/16 01:38:20;;;;;;;;;11.33;9.00;;;;;;;;5056896;28;45763;-70
2023/11/16 01:40:45;;;;;;;;;10.67;10.67;;;;;;;;5047680;28;45757;-68
2023/11/16 01:43:12;;;;;;;;;8.67;8.67;;;;;;;;5043058;28;45168;-71
2023/11/16 01:45:37;;;;;;;;;12.00;9.33;;;;;;;;5052962;28;45526;-69
2023/11/16 01:48:06;;;;;;;;;9.00;9.00;;;;;;;;5055383;28;45444;-69
2023/11/16 01:50:32;;;;;;;;;11.33;8.67;;;;;;;;5050459;28;45936;-69
2023/11/16 01:53:04;;;;;;;;;9.00;6.00;;;;;;;;5049261;28;47183;-68
2023/11/16 01:55:30;;;;;;;;;9.67;6.00;;;;;;;;5049259;28;45465;-69
2023/11/16 01:57:55;;;;;;;;;5.33;5.33;;;;;;;;5050326;28;45465;-68
2023/11/16 02:00:21;;;;;;;;;9.00;5.00;;;;;;;;5044176;28;45480;-69
2023/11/16 02:02:47;;;;;;;;;6.67;6.67;;;;;;;;5055284;28;46558;-69
2023/11/16 02:05:12;;;;;;;;;11.33;8.33;;;;;;;;5055737;28;45373;-71
2023/11/16 02:07:38;;;;;;;;;9.00;8.00;;;;;;;;5056556;28;45445;-69
2023/11/16 02:10:03;;;;;;;;;8.00;5.00;;;;;;;;5044677;28;45557;-69
2023/11/16 02:12:28;;;;;;;;;5.67;5.67;;;;;;;;5040266;28;46941;-71
2023/11/16 02:14:53;;;;;;;;;12.33;8.00;;;;;;;;5046480;28;45331;-69
2023/11/16 02:17:18;;;;;;;;;9.00;8.00;;;;;;;;5044260;28;45569;-72
2023/11/16 02:19:44;;;;;;;;;8.00;8.00;;;;;;;;5053676;28;45497;-70
2023/11/16 02:22:10;;;;;;;;;9.33;8.00;;;;;;;;5054104;28;47759;-72
2023/11/16 02:24:35;;;;;;;;;9.33;6.00;;;;;;;;5051350;28;45568;-71
2023/11/16 02:27:00;;;;;;;;;8.33;6.67;;;;;;;;5052811;28;45821;-68
2023/11/16 02:29:26;;;;;;;;;7.00;5.00;;;;;;;;5047147;28;45195;-71
2023/11/16 02:31:53;;;;;;;;;10.00;7.67;;;;;;;;5055302;28;46378;-72
2023/11/16 02:34:18;;;;;;;;;6.67;5.67;;;;;;;;5048087;28;45277;-72
2023/11/16 02:36:43;;;;;;;;;6.33;6.33;;;;;;;;5050311;28;45418;-72
2023/11/16 02:39:08;;;;;;;;;11.00;8.00;;;;;;;;5045377;28;45597;-72
2023/11/16 02:41:36;;;;;;;;;8.33;6.00;;;;;;;;5048305;28;46508;-71
2023/11/16 02:44:02;;;;;;;;;10.67;7.33;;;;;;;;5050961;28;45453;-69
2023/11/16 02:46:27;;;;;;;;;9.67;8.00;;;;;;;;5048000;28;45443;-73
2023/11/16 02:48:53;;;;;;;;;11.00;9.33;;;;;;;;5054368;28;45425;-70
2023/11/16 02:51:19;;;;;;;;;8.33;8.00;;;;;;;;5049330;28;46403;-69
2023/11/16 02:53:44;;;;;;;;;9.67;9.67;;;;;;;;5048872;28;45451;-71
2023/11/16 02:56:11;;;;;;;;;10.33;9.67;;;;;;;;5050014;28;45349;-70
2023/11/16 02:58:41;;;;;;;;;9.00;9.00;;;;;;;;5055519;28;45366;-71
2023/11/16 03:01:07;;;;;;;;;11.00;9.67;;;;;;;;5047307;28;47354;-69
2023/11/16 03:03:34;;;;;;;;;12.67;10.00;;;;;;;;5049828;28;45308;-69
2023/11/16 03:05:59;;;;;;;;;10.67;10.67;;;;;;;;5055457;28;45243;-70
2023/11/16 03:08:24;;;;;;;;;11.67;8.00;;;;;;;;5049898;28;45447;-69
2023/11/16 03:10:49;;;;;;;;;14.33;9.67;;;;;;;;5042230;28;46401;-71
2023/11/16 03:13:16;;;;;;;;;14.67;10.33;;;;;;;;5048722;28;45462;-69
2023/11/16 03:15:41;;;;;;;;;12.33;9.00;;;;;;;;5042127;28;45434;-70
2023/11/16 03:18:06;;;;;;;;;13.00;9.00;;;;;;;;5046444;28;45436;-71
2023/11/16 03:20:32;;;;;;;;;9.67;9.67;;;;;;;;5054983;28;45805;-70
2023/11/16 03:22:57;;;;;;;;;12.67;10.00;;;;;;;;5055002;28;45196;-72
2023/11/16 03:25:22;;;;;;;;;7.00;5.33;;;;;;;;5046658;28;45426;-69
2023/11/16 03:27:48;;;;;;;;;11.00;9.33;;;;;;;;5056871;28;45325;-73
2023/11/16 03:30:16;;;;;;;;;10.00;7.33;;;;;;;;5056628;28;46578;-69
2023/11/16 03:32:41;;;;;;;;;8.33;6.33;;;;;;;;5050690;28;45539;-69
2023/11/16 03:35:06;;;;;;;;;11.67;6.33;;;;;;;;5046681;28;46052;-69
2023/11/16 03:37:31;;;;;;;;;13.00;10.00;;;;;;;;5054034;28;45363;-69
2023/11/16 03:39:57;;;;;;;;;11.00;7.67;;;;;;;;5053778;28;46127;-71
2023/11/16 03:42:22;;;;;;;;;9.00;8.00;;;;;;;;5049110;28;45437;-71
2023/11/16 03:44:49;;;;;;;;;17.67;9.33;;;;;;;;5055797;28;45493;-73
2023/11/16 03:47:14;;;;;;;;;16.67;9.00;;;;;;;;5050713;28;45160;-69
2023/11/16 03:49:40;;;;;;;;;10.00;8.33;;;;;;;;5057923;28;47204;-69
2023/11/16 03:52:05;;;;;;;;;12.33;8.67;;;;;;;;5056286;28;45463;-69
2023/11/16 03:54:30;;;;;;;;;10.00;10.00;;;;;;;;5057122;28;45454;-69
2023/11/16 03:56:55;;;;;;;;;18.33;9.67;;;;;;;;5053751;28;45647;-70
2023/11/16 03:59:21;;;;;;;;;9.00;9.00;;;;;;;;5049647;28;45431;-70
2023/11/16 04:01:46;;;;;;;;;11.67;10.00;;;;;;;;5052177;28;45212;-68
2023/11/16 04:04:11;;;;;;;;;9.33;8.67;;;;;;;;5050057;28;45335;-71
2023/11/16 04:06:37;;;;;;;;;9.67;9.00;;;;;;;;5057655;28;45422;-72
2023/11/16 04:09:05;;;;;;;;;11.00;11.00;;;;;;;;5043724;28;46556;-69
2023/11/16 04:11:31;;;;;;;;;17.00;12.00;;;;;;;;5049511;28;45333;-69
2023/11/16 04:13:57;;;;;;;;;10.33;9.33;;;;;;;;5041317;28;45386;-72
2023/11/16 04:16:24;;;;;;;;;10.00;8.33;;;;;;;;5052265;28;45493;-70
2023/11/16 04:18:50;;;;;;;;;8.67;6.00;;;;;;;;5046110;28;46579;-70
2023/11/16 04:21:19;;;;;;;;;9.00;9.00;;;;;;;;5057637;28;45243;-69
2023/11/16 04:23:52;;;;;;;;;13.33;8.67;;;;;;;;5050477;28;45334;-69
2023/11/16 04:26:20;;;;;;;;;15.00;10.00;;;;;;;;5050141;28;45328;-72
2023/11/16 04:28:46;;;;;;;;;10.67;9.33;;;;;;;;5058092;28;46083;-69
2023/11/16 04:31:12;;;;;;;;;10.00;10.00;;;;;;;;5050773;28;45262;-69
2023/11/16 04:33:37;;;;;;;;;12.33;10.67;;;;;;;;5057479;28;45532;-68
2023/11/16 04:36:05;;;;;;;;;9.67;7.33;;;;;;;;5057896;28;45564;-71
2023/11/16 04:38:31;;;;;;;;;9.00;8.00;;;;;;;;5054274;28;45452;-69
2023/11/16 04:40:56;;;;;;;;;13.67;8.00;;;;;;;;5048362;28;45341;-69
2023/11/16 04:43:22;;;;;;;;;9.33;8.00;;;;;;;;5042881;28;45150;-70
2023/11/16 04:45:50;;;;;;;;;6.67;6.67;;;;;;;;5051223;28;45681;-73
2023/11/16 04:48:17;;;;;;;;;13.00;9.00;;;;;;;;5052021;28;45911;-72
2023/11/16 04:50:43;;;;;;;;;7.67;7.33;;;;;;;;5044110;28;45308;-68
2023/11/16 04:53:08;;;;;;;;;8.67;6.00;;;;;;;;5057208;28;45366;-69
2023/11/16 04:55:35;;;;;;;;;9.00;6.33;;;;;;;;5056801;28;45465;-69
2023/11/16 04:58:00;;;;;;;;;9.00;6.67;;;;;;;;5054455;28;47477;-68
2023/11/16 05:00:25;;;;;;;;;11.00;7.00;;;;;;;;5052607;28;45485;-69
2023/11/16 05:02:50;;;;;;;;;9.25;8.00;;;;;;;;5054443;28;45459;-69
2023/11/16 05:05:16;;;;;;;;;13.00;7.33;;;;;;;;5049367;28;45161;-69
2023/11/16 05:07:42;;;;;;;;;15.67;9.67;;;;;;;;5056935;28;45600;-70
2023/11/16 05:10:10;;;;;;;;;12.50;9.25;;;;;;;;5047194;28;45493;-72
2023/11/16 05:12:35;;;;;;;;;8.67;8.67;;;;;;;;5045662;28;45292;-72
2023/11/16 05:15:00;;;;;;;;;10.33;10.00;;;;;;;;5043182;28;45481;-69
2023/11/16 05:17:26;;;;;;;;;7.67;6.00;;;;;;;;5041758;28;46091;-68
2023/11/16 05:19:51;;;;;;;;;11.33;10.00;;;;;;;;5051425;28;45444;-70
2023/11/16 05:22:17;;;;;;;;;10.00;9.00;;;;;;;;5056356;28;45396;-70
2023/11/16 05:24:43;;;;;;;;;12.00;9.00;;;;;;;;5056488;28;45629;-69
2023/11/16 05:27:08;;;;;;;;;11.00;9.33;;;;;;;;5055781;28;45769;-71
2023/11/16 05:29:33;;;;;;;;;6.00;6.00;;;;;;;;5048028;28;45245;-68
2023/11/16 05:31:58;;;;;;;;;10.67;10.00;;;;;;;;5050812;28;45294;-69
2023/11/16 05:34:24;;;;;;;;;9.67;6.00;;;;;;;;5057302;28;45184;-71
2023/11/16 05:36:51;;;;;;;;;12.67;11.00;;;;;;;;5047444;28;45815;-70
2023/11/16 05:39:17;;;;;;;;;9.50;9.50;;;;;;;;5051226;28;45268;-71
2023/11/16 05:41:42;;;;;;;;;12.67;10.67;;;;;;;;5040015;28;45346;-69
2023/11/16 05:44:07;;;;;;;;;10.50;10.00;;;;;;;;5049943;28;45257;-69
2023/11/16 05:46:32;;;;;;;;;13.00;10.50;;;;;;;;5037998;28;45678;-70
2023/11/16 05:48:58;;;;;;;;;9.00;9.00;;;;;;;;5045846;28;45517;-68
2023/11/16 05:51:23;;;;;;;;;11.50;10.50;;;;;;;;5055339;28;45356;-68
2023/11/16 05:53:48;;;;;;;;;8.67;8.33;;;;;;;;5054391;28;45390;-72
2023/11/16 05:56:13;;;;;;;;;12.67;10.00;;;;;;;;5056029;28;45779;-70
2023/11/16 05:58:38;;;;;;;;;12.00;9.00;;;;;;;;5053678;28;45429;-69
2023/11/16 06:01:04;;;;;;;;;9.00;6.00;;;;;;;;5051393;28;45469;-69
2023/11/16 06:03:29;;;;;;;;;7.67;7.67;;;;;;;;5056247;28;45393;-69
2023/11/16 06:05:55;;;;;;;;;5.67;5.67;;;;;;;;5043759;28;47471;-71
2023/11/16 06:08:20;;;;;;;;;12.67;11.00;;;;;;;;5051002;28;45367;-69
2023/11/16 06:10:45;;;;;;;;;9.00;7.33;;;;;;;;5055678;28;45304;-70
2023/11/16 06:13:10;;;;;;;;;10.00;6.00;;;;;;;;5053697;28;45595;-69
2023/11/16 06:15:36;;;;;;;;;8.33;7.33;;;;;;;;5044493;28;45969;-69
2023/11/16 06:18:02;;;;;;;;;10.67;8.00;;;;;;;;5055363;28;45489;-69
2023/11/16 06:20:28;;;;;;;;;8.00;8.00;;;;;;;;5054935;28;45568;-68
2023/11/16 06:22:53;;;;;;;;;9.67;8.00;;;;;;;;5055193;28;45424;-72
2023/11/16 06:25:19;;;;;;;;;8.00;8.00;;;;;;;;5052239;28;46298;-69
2023/11/16 06:27:45;;;;;;;;;12.33;10.67;;;;;;;;5055386;28;45533;-68
2023/11/16 06:30:12;;;;;;;;;11.67;10.00;;;;;;;;5048851;28;45366;-68
2023/11/16 06:32:37;;;;;;;;;9.67;9.00;;;;;;;;5055561;28;45269;-68
2023/11/16 06:35:03;;;;;;;;;14.33;7.67;;;;;;;;5051916;28;46655;-71
2023/11/16 06:37:28;;;;;;;;;12.00;11.00;;;;;;;;5054306;28;45438;-69
2023/11/16 06:39:54;;;;;;;;;18.67;11.33;;;;;;;;5053160;28;45290;-71
2023/11/16 06:42:20;;;;;;;;;13.67;12.33;;;;;;;;5055033;28;45375;-69
2023/11/16 06:44:48;;;;;;;;;9.00;7.67;;;;;;;;5053293;28;46593;-68
2023/11/16 06:47:15;;;;;;;;;10.00;8.67;;;;;;;;5052379;28;45453;-72
2023/11/16 06:49:41;;;;;;;;;12.00;10.00;;;;;;;;5042476;28;45433;-72
2023/11/16 06:52:06;;;;;;;;;16.00;10.33;;;;;;;;5051464;28;45513;-68
2023/11/16 06:54:33;;;;;;;;;12.33;9.00;;;;;;;;5040931;28;46339;-67
2023/11/16 06:56:59;;;;;;;;;10.00;10.00;;;;;;;;5040817;28;45458;-70
2023/11/16 06:59:24;;;;;;;;;9.33;9.33;;;;;;;;5053075;28;45270;-69
2023/11/16 07:01:52;;;;;;;;;15.33;9.67;;;;;;;;5055011;28;45722;-70
2023/11/16 07:04:18;;;;;;;;;16.33;9.67;;;;;;;;5051942;28;46605;-70
2023/11/16 07:06:43;;;;;;;;;11.00;10.00;;;;;;;;5054017;28;45430;-70
2023/11/16 07:09:11;;;;;;;;;11.00;10.00;;;;;;;;5051636;28;45244;-70
2023/11/16 07:11:38;;;;;;;;;10.33;8.33;;;;;;;;5046536;28;45374;-70
2023/11/16 07:14:03;;;;;;;;;11.67;9.00;;;;;;;;5055638;28;46693;-67
2023/11/16 07:16:29;;;;;;;;;11.33;9.00;;;;;;;;5044916;28;45417;-68
2023/11/16 07:18:54;;;;;;;;;9.67;8.67;;;;;;;;5038252;28;45371;-69
2023/11/16 07:21:19;;;;;;;;;9.33;9.33;;;;;;;;5051226;28;45473;-68
2023/11/16 07:23:45;;;;;;;;;14.00;9.67;;;;;;;;5050226;28;45902;-69
2023/11/16 07:26:10;;;;;;;;;9.33;7.33;;;;;;;;5056856;28;45591;-68
2023/11/16 07:28:38;;;;;;;;;13.67;11.00;;;;;;;;5053613;28;45465;-68
2023/11/16 07:31:04;;;;;;;;;12.00;10.00;;;;;;;;5057482;28;45268;-69
2023/11/16 07:33:29;;;;;;;;;13.33;9.00;;;;;;;;5049314;28;45879;-67
2023/11/16 07:35:54;;;;;;;;;8.67;6.00;;;;;;;;5053789;28;45508;-69
2023/11/16 07:38:21;;;;;;;;;12.67;8.33;;;;;;;;5047106;28;45745;-68
2023/11/16 07:40:46;;;;;;;;;10.00;7.67;;;;;;;;5052774;28;45492;-68
2023/11/16 07:43:11;;;;;;;;;8.33;5.33;;;;;;;;5054190;28;46517;-69
2023/11/16 07:45:37;;;;;;;;;7.00;6.00;;;;;;;;5055614;28;45437;-69
2023/11/16 07:48:04;;;;;;;;;8.67;8.67;;;;;;;;5054169;28;45513;-69
2023/11/16 07:50:31;;;;;;;;;10.67;9.00;;;;;;;;5151990;22;45717;-69
2023/11/16 07:52:59;;;;;;;;;4.67;4.67;;;;;;;;5038245;28;46643;-69
2023/11/16 07:55:25;;;;;;;;;4.00;4.00;;;;;;;;5037466;28;45370;-68
2023/11/16 07:57:52;;;;;;;;;5.67;5.00;;;;;;;;5038315;28;45288;-69
2023/11/16 08:00:31;;;;;;;;;6.00;5.00;;;;;;;;5028736;28;45370;-68
2023/11/16 08:05:44;;;;;;;;;5.00;4.00;;;;;;;;5036932;28;45391;-70
2023/11/16 08:08:13;;;;;;;;;5.33;4.33;;;;;;;;5037830;28;45446;-67
2023/11/16 08:10:39;;;;;;;;;4.67;4.00;;;;;;;;5038358;28;45358;-69
2023/11/16 08:13:05;;;;;;;;;4.00;3.00;;;;;;;;5034038;28;45460;-68
2023/11/16 08:15:32;;;;;;;;;5.33;3.00;;;;;;;;5037863;28;45581;-70
2023/11/16 08:17:58;;;;;;;;;6.33;3.00;;;;;;;;5033602;28;45400;-68
2023/11/16 08:20:23;;;;;;;;;7.33;3.33;;;;;;;;5036631;28;45882;-67
2023/11/16 08:22:51;;;;;;;;;6.00;4.00;;;;;;;;5035757;28;46887;-69
2023/11/16 08:25:23;;;;;;;;;5.00;4.00;;;;;;;;5032894;28;45999;-69
2023/11/16 08:27:49;;;;;;;;;7.67;4.00;;;;;;;;5028639;28;45509;-71
2023/11/16 08:30:16;;;;;;;;;3.67;3.67;;;;;;;;5034206;28;45537;-69
2023/11/16 08:32:41;;;;;;;;;7.33;3.67;;;;;;;;5037935;28;46539;-70
2023/11/16 08:35:06;;;;;;;;;5.33;4.00;;;;;;;;5037138;28;45428;-68
2023/11/16 08:37:31;;;;;;;;;5.00;4.00;;;;;;;;5038011;28;45486;-70
2023/11/16 08:39:56;;;;;;;;;4.00;3.00;;;;;;;;5027486;28;45414;-71
2023/11/16 08:42:24;;;;;;;;;1.00;1.00;;;;;;;;5033833;28;45734;-67
2023/11/16 08:44:49;;;;;;;;;4.67;2.33;;;;;;;;5034562;28;45491;-71
2023/11/16 08:47:14;;;;;;;;;5.00;2.67;;;;;;;;5034549;28;45450;-71
2023/11/16 08:49:41;;;;;;;;;3.00;3.00;;;;;;;;5034489;28;45590;-70
2023/11/16 08:52:07;;;;;;;;;3.33;3.33;;;;;;;;5031460;28;46528;-68
2023/11/16 08:54:33;;;;;;;;;4.00;3.33;;;;;;;;5033132;28;46517;-68
2023/11/16 08:56:58;;;;;;;;;5.00;2.33;;;;;;;;5029460;28;46493;-69
2023/11/16 08:59:24;;;;;;;;;6.33;2.00;;;;;;;;5031826;28;45398;-68
2023/11/16 09:01:49;;;;;;;;;3.00;2.00;;;;;;;;5034142;28;45526;-69
2023/11/16 09:04:14;;;;;;;;;8.00;2.33;;;;;;;;5033685;28;45323;-70
2023/11/16 09:06:43;;;;;;;;;3.00;3.00;;;;;;;;5034677;28;45430;-67
2023/11/16 09:09:35;;;;;;;;;2.00;2.00;;;;;;;;5027115;28;45565;-70
2023/11/16 09:11:57;;;;;;;;;4.67;2.67;;;;;;;;5034281;28;45550;-72
2023/11/16 09:14:22;;;;;;;;;3.00;3.00;;;;;;;;5028850;28;45303;-72
2023/11/16 09:16:49;;;;;;;;;4.00;2.33;;;;;;;;5031979;28;45556;-69
2023/11/16 09:19:14;;;;;;;;;6.67;1.00;;;;;;;;5031198;28;45518;-70
2023/11/16 09:21:39;;;;;;;;;4.00;3.00;;;;;;;;5032901;28;46300;-68
2023/11/16 09:24:05;;;;;;;;;4.33;2.00;;;;;;;;5037546;28;45392;-67
2023/11/16 09:26:31;;;;;;;;;2.00;2.00;;;;;;;;5034836;28;45403;-69
2023/11/16 09:28:57;;;;;;;;;3.00;2.00;;;;;;;;5032946;28;45352;-69
2023/11/16 09:31:23;;;;;;;;;3.00;2.00;;;;;;;;5033056;28;46357;-70
2023/11/16 09:33:49;;;;;;;;;1.00;1.00;;;;;;;;5034429;28;45404;-69
2023/11/16 09:36:14;;;;;;;;;3.33;3.00;;;;;;;;5031114;28;45442;-67
2023/11/16 09:38:41;;;;;;;;;2.33;2.33;;;;;;;;5033642;28;46565;-69
2023/11/16 09:41:15;;;;;;;;;2.00;2.00;;;;;;;;5035251;28;46261;-71
2023/11/16 09:43:40;;;;;;;;;1.33;1.33;;;;;;;;5034936;28;45511;-70
2023/11/16 09:46:07;;;;;;;;;5.67;2.00;;;;;;;;5034892;28;45584;-68
2023/11/16 09:48:32;;;;;;;;;2.00;1.00;;;;;;;;5033916;28;47232;-68
2023/11/16 09:50:58;;;;;;;;;1.00;1.00;;;;;;;;5036205;28;46670;-68
2023/11/16 09:53:26;;;;;;;;;2.33;2.00;;;;;;;;5026248;28;45952;-68
2023/11/16 09:55:56;;;;;;;;;1.67;1.67;;;;;;;;5027817;28;47530;-71
2023/11/16 09:58:28;;;;;;;;;1.00;1.00;;;;;;;;5036112;28;45517;-69
2023/11/16 10:00:56;;;;;;;;;2.67;1.00;;;;;;;;5034548;28;45846;-68
2023/11/16 10:03:31;;;;;;;;;3.00;2.00;;;;;;;;5031080;28;45452;-68
2023/11/16 10:05:56;;;;;;;;;2.00;1.00;;;;;;;;5030551;28;45517;-69
2023/11/16 10:08:27;;;;;;;;;3.00;1.33;;;;;;;;5033718;28;45242;-70
2023/11/16 10:10:54;;;;;;;;;4.00;2.00;;;;;;;;5030977;28;46749;-68
2023/11/16 10:13:19;;;;;;;;;1.00;1.00;;;;;;;;5030271;28;45480;-69
2023/11/16 10:15:48;;;;;;;;;3.00;1.00;;;;;;;;5029414;28;45468;-69
2023/11/16 10:18:13;;;;;;;;;1.67;1.67;;;;;;;;5029917;28;45533;-69
2023/11/16 10:20:39;;;;;;;;;2.00;1.00;;;;;;;;5033537;28;45578;-70
2023/11/16 10:23:05;;;;;;;;;3.00;2.00;;;;;;;;5022594;28;45363;-70
2023/11/16 10:25:30;;;;;;;;;2.00;2.00;;;;;;;;5033857;28;46412;-68
2023/11/16 10:27:56;;;;;;;;;2.00;2.00;;;;;;;;5033356;28;46481;-69
2023/11/16 10:30:23;;;;;;;;;2.00;1.33;;;;;;;;5034370;28;46482;-70
2023/11/16 10:32:49;;;;;;;;;3.00;1.00;;;;;;;;5028512;28;45422;-71
2023/11/16 10:35:15;;;;;;;;;3.33;1.00;;;;;;;;5026728;28;45283;-68
2023/11/16 10:37:41;;;;;;;;;3.67;2.67;;;;;;;;5032950;28;45702;-70
2023/11/16 10:40:10;;;;;;;;;5.00;2.00;;;;;;;;5030402;28;46477;-68
2023/11/16 10:42:36;;;;;;;;;3.67;2.00;;;;;;;;5033452;28;45516;-68
2023/11/16 10:45:02;;;;;;;;;2.00;2.00;;;;;;;;5033923;28;45545;-68
2023/11/16 10:47:28;;;;;;;;;2.67;2.00;;;;;;;;5033745;28;45572;-68
2023/11/16 10:49:54;;;;;;;;;1.00;1.00;;;;;;;;5028932;28;46630;-70
2023/11/16 10:52:21;;;;;;;;;3.00;3.00;;;;;;;;5036659;28;45470;-69
2023/11/16 10:54:49;;;;;;;;;1.33;1.33;;;;;;;;5031222;28;46496;-67
2023/11/16 10:57:15;;;;;;;;;2.33;1.00;;;;;;;;5035200;28;45530;-71
2023/11/16 10:59:44;;;;;;;;;4.33;2.00;;;;;;;;5033419;28;46137;-69
2023/11/16 11:02:10;;;;;;;;;2.00;0.00;;;;;;;;5035892;28;45506;-69
2023/11/16 11:04:36;;;;;;;;;3.67;2.00;;;;;;;;5025478;28;45538;-68
2023/11/16 11:07:01;;;;;;;;;4.33;2.00;;;;;;;;5031371;28;45410;-70
2023/11/16 11:09:42;;;;;;;;;3.00;2.00;;;;;;;;5034639;28;47402;-71
2023/11/16 11:12:13;;;;;;;;;2.00;2.00;;;;;;;;5024431;28;45485;-69
2023/11/16 11:15:05;;;;;;;;;3.67;3.67;;;;;;;;5031252;28;45470;-71
2023/11/16 11:17:35;;;;;;;;;2.00;2.00;;;;;;;;5031362;28;45498;-70
2023/11/16 11:20:08;;;;;;;;;2.00;2.00;;;;;;;;5032929;28;46504;-69
2023/11/16 11:22:33;;;;;;;;;3.00;1.33;;;;;;;;5031386;28;45308;-70
2023/11/16 11:24:58;;;;;;;;;6.67;3.33;;;;;;;;5026035;28;45500;-68
2023/11/16 11:27:25;;;;;;;;;1.67;1.67;;;;;;;;5034232;28;45584;-69
2023/11/16 11:29:52;;;;;;;;;4.00;2.00;;;;;;;;5034068;28;47562;-69
2023/11/16 11:32:18;;;;;;;;;2.00;2.00;;;;;;;;5032472;28;45423;-68
2023/11/16 11:34:43;;;;;;;;;3.67;3.00;;;;;;;;5031777;28;45284;-69
2023/11/16 11:37:10;;;;;;;;;6.00;4.00;;;;;;;;5027700;28;46920;-67
2023/11/16 11:39:40;;;;;;;;;3.00;3.00;;;;;;;;5026148;28;46595;-68
2023/11/16 11:42:06;;;;;;;;;5.67;4.00;;;;;;;;5029203;28;45347;-69
2023/11/16 11:44:31;;;;;;;;;6.00;3.00;;;;;;;;5032075;28;45453;-68
2023/11/16 11:46:57;;;;;;;;;2.67;2.67;;;;;;;;5032000;28;45407;-69
2023/11/16 11:49:22;;;;;;;;;4.00;3.67;;;;;;;;5032413;28;46744;-68
2023/11/16 11:51:47;;;;;;;;;4.00;3.33;;;;;;;;5036081;28;45548;-69
2023/11/16 11:54:14;;;;;;;;;4.00;4.00;;;;;;;;5032621;28;45483;-70
2023/11/16 11:56:43;;;;;;;;;4.00;3.00;;;;;;;;5033801;28;45494;-69
2023/11/16 11:59:08;;;;;;;;;3.00;3.00;;;;;;;;5035674;28;45831;-70
2023/11/16 12:01:33;;;;;;;;;4.00;4.00;;;;;;;;5034834;28;45398;-70
2023/11/16 12:04:03;;;;;;;;;8.33;6.00;;;;;;;;5035812;28;45467;-70
2023/11/16 12:06:29;;;;;;;;;3.00;3.00;;;;;;;;5035283;28;45395;-69
2023/11/16 12:08:55;;;;;;;;;6.00;4.33;;;;;;;;5028862;28;46905;-68
2023/11/16 12:11:21;;;;;;;;;6.67;5.00;;;;;;;;5034982;28;45430;-68
2023/11/16 12:13:46;;;;;;;;;6.00;5.00;;;;;;;;5033447;28;45867;-70
2023/11/16 12:16:12;;;;;;;;;4.00;4.00;;;;;;;;5034357;28;45511;-68
2023/11/16 12:18:41;;;;;;;;;7.00;5.00;;;;;;;;5027586;28;47413;-69
2023/11/16 12:21:11;;;;;;;;;7.00;7.00;;;;;;;;5033898;28;45470;-70
2023/11/16 12:23:49;;;;;;;;;7.33;7.33;;;;;;;;5032642;28;45362;-69
2023/11/16 12:26:23;;;;;;;;;10.00;6.67;;;;;;;;5033516;28;45551;-68
2023/11/16 12:28:49;;;;;;;;;9.00;4.33;;;;;;;;5027627;28;46676;-67
2023/11/16 12:31:17;;;;;;;;;7.67;5.00;;;;;;;;5035497;28;45426;-67
2023/11/16 12:33:43;;;;;;;;;9.00;4.33;;;;;;;;5029787;28;45434;-68
2023/11/16 12:36:11;;;;;;;;;6.00;4.67;;;;;;;;5033108;28;45673;-68
2023/11/16 12:38:36;;;;;;;;;6.33;4.00;;;;;;;;5034413;28;46867;-69
2023/11/16 12:41:01;;;;;;;;;6.33;4.00;;;;;;;;5035711;28;45383;-67
2023/11/16 12:43:27;;;;;;;;;6.00;5.00;;;;;;;;5034085;28;45614;-67
2023/11/16 12:45:52;;;;;;;;;8.67;7.67;;;;;;;;5035294;28;45252;-67
2023/11/16 12:48:18;;;;;;;;;7.67;4.00;;;;;;;;5031073;28;47276;-67
2023/11/16 12:50:44;;;;;;;;;5.00;3.00;;;;;;;;5034249;28;45531;-67
2023/11/16 12:53:09;;;;;;;;;5.67;4.00;;;;;;;;5031525;28;45521;-67
2023/11/16 12:55:34;;;;;;;;;4.67;4.00;;;;;;;;5032278;28;45452;-67
2023/11/16 12:58:00;;;;;;;;;6.00;4.00;;;;;;;;5034520;28;45678;-68
2023/11/16 13:00:25;;;;;;;;;5.00;5.00;;;;;;;;5032208;28;45363;-68
2023/11/16 13:02:50;;;;;;;;;5.33;4.00;;;;;;;;5027884;28;45562;-68
2023/11/16 13:05:16;;;;;;;;;3.33;3.00;;;;;;;;5030519;28;45461;-70
2023/11/16 13:07:41;;;;;;;;;7.00;4.00;;;;;;;;5035416;28;45727;-70
2023/11/16 13:10:07;;;;;;;;;3.00;3.00;;;;;;;;5033809;28;45554;-67
2023/11/16 13:12:33;;;;;;;;;9.00;5.00;;;;;;;;5034900;28;45832;-68
2023/11/16 13:14:58;;;;;;;;;4.00;3.00;;;;;;;;5036044;28;45480;-70
2023/11/16 13:17:25;;;;;;;;;6.00;4.00;;;;;;;;5035310;28;45632;-67
2023/11/16 13:19:51;;;;;;;;;2.00;2.00;;;;;;;;5036262;28;45562;-68
2023/11/16 13:22:16;;;;;;;;;6.00;4.00;;;;;;;;5036373;28;45465;-70
2023/11/16 13:24:41;;;;;;;;;4.67;4.00;;;;;;;;5034338;28;47235;-69
2023/11/16 13:27:06;;;;;;;;;5.00;3.67;;;;;;;;5035875;28;45821;-67
2023/11/16 13:29:31;;;;;;;;;4.00;3.00;;;;;;;;5034850;28;45411;-68
2023/11/16 13:31:57;;;;;;;;;3.33;3.00;;;;;;;;5035356;28;45359;-68
2023/11/16 13:34:24;;;;;;;;;6.00;5.00;;;;;;;;5035851;28;45438;-69
2023/11/16 13:36:49;;;;;;;;;4.00;4.00;;;;;;;;5034753;28;46494;-68
2023/11/16 13:39:15;;;;;;;;;6.00;5.00;;;;;;;;5034386;28;45360;-67
2023/11/16 13:41:41;;;;;;;;;4.67;4.67;;;;;;;;5034735;28;45597;-67
2023/11/16 13:44:06;;;;;;;;;4.67;4.00;;;;;;;;5034203;28;46573;-70
2023/11/16 13:46:31;;;;;;;;;4.00;4.00;;;;;;;;5034595;28;46406;-67
2023/11/16 13:48:58;;;;;;;;;5.00;5.00;;;;;;;;5033486;28;46202;-67
2023/11/16 13:51:23;;;;;;;;;3.33;3.33;;;;;;;;5039624;28;45515;-67
2023/11/16 13:53:48;;;;;;;;;6.33;4.67;;;;;;;;5036452;28;45509;-70
2023/11/16 13:56:13;;;;;;;;;5.00;5.00;;;;;;;;5035217;28;47618;-68
2023/11/16 13:58:39;;;;;;;;;4.33;4.33;;;;;;;;5034461;28;45727;-67
2023/11/16 14:01:06;;;;;;;;;5.67;5.00;;;;;;;;5030440;28;45521;-67
2023/11/16 14:03:31;;;;;;;;;5.33;5.33;;;;;;;;5035190;28;45750;-68
2023/11/16 14:05:57;;;;;;;;;5.00;5.00;;;;;;;;5035586;28;46056;-68
2023/11/16 14:08:22;;;;;;;;;4.67;4.00;;;;;;;;5034540;28;45291;-68
2023/11/16 14:10:47;;;;;;;;;5.33;5.00;;;;;;;;5033947;28;45494;-68
2023/11/16 14:13:12;;;;;;;;;6.00;4.67;;;;;;;;5032852;28;45708;-69
2023/11/16 14:15:38;;;;;;;;;5.00;4.00;;;;;;;;5033537;28;46114;-68
2023/11/16 14:18:03;;;;;;;;;4.00;4.00;;;;;;;;5034575;28;45421;-68
2023/11/16 14:20:28;;;;;;;;;4.00;4.00;;;;;;;;5035489;28;45493;-68
2023/11/16 14:22:53;;;;;;;;;3.33;3.00;;;;;;;;5033835;28;45349;-69
2023/11/16 14:25:22;;;;;;;;;4.33;4.00;;;;;;;;5032780;28;46605;-68
2023/11/16 14:27:47;;;;;;;;;6.00;4.00;;;;;;;;5035497;28;45497;-67
2023/11/16 14:30:14;;;;;;;;;3.00;3.00;;;;;;;;5034162;28;45429;-68
2023/11/16 14:32:39;;;;;;;;;6.33;5.33;;;;;;;;5034530;28;45398;-68